Terminal Aerodrome Forecast
Issued by NWS

Current Version | Previous Version | Graphics & Text | Print | Product List | Glossary On
Versions: 1 2 3 4 5 6 7 8 9 10 11 12 13 14 15 16 17 18 19 20 21 22 23 24 25
000
FTUS41 KRLX 040538
TAFCKB
TAF
KCKB 040538Z 0406/0506 00000KT 3SM SHRA BR OVC035
     FM040800 00000KT 2SM SHRA BR OVC010
     FM041200 00000KT 4SM BR OVC007
     FM041400 VRB03KT 6SM BR BKN010
     FM041500 28004KT P6SM BKN015
     FM041900 29005KT P6SM BKN035
     FM050300 00000KT 6SM BR SCT035=

USA.gov is the U.S. government's official web portal to all federal, state and local government web resources and services.